sensor_id;sensor_type;location;lat;lon;timestamp;P1;durP1;ratioP1;P2;durP2;ratioP2
27839;SDS011;15207;42.182;24.308;2023-04-07T00:01:48;12.50;;;6.60;;
27839;SDS011;15207;42.182;24.308;2023-04-07T00:04:13;10.90;;;6.10;;
27839;SDS011;15207;42.182;24.308;2023-04-07T00:06:39;11.03;;;5.57;;
27839;SDS011;15207;42.182;24.308;2023-04-07T00:09:05;7.43;;;5.57;;
27839;SDS011;15207;42.182;24.308;2023-04-07T00:11:30;8.80;;;5.70;;
27839;SDS011;15207;42.182;24.308;2023-04-07T00:13:56;9.20;;;5.50;;
27839;SDS011;15207;42.182;24.308;2023-04-07T00:16:21;9.30;;;4.82;;
27839;SDS011;15207;42.182;24.308;2023-04-07T00:18:47;7.20;;;4.73;;
27839;SDS011;15207;42.182;24.308;2023-04-07T00:21:12;8.50;;;4.50;;
27839;SDS011;15207;42.182;24.308;2023-04-07T00:23:38;8.37;;;5.13;;
27839;SDS011;15207;42.182;24.308;2023-04-07T00:26:03;10.70;;;5.50;;
27839;SDS011;15207;42.182;24.308;2023-04-07T00:28:29;7.25;;;5.45;;
27839;SDS011;15207;42.182;24.308;2023-04-07T00:30:55;11.60;;;4.95;;
27839;SDS011;15207;42.182;24.308;2023-04-07T00:33:20;10.60;;;5.10;;
27839;SDS011;15207;42.182;24.308;2023-04-07T00:35:46;9.27;;;5.35;;
27839;SDS011;15207;42.182;24.308;2023-04-07T00:38:11;8.00;;;5.00;;
27839;SDS011;15207;42.182;24.308;2023-04-07T00:40:37;6.70;;;4.30;;
27839;SDS011;15207;42.182;24.308;2023-04-07T00:43:02;7.70;;;5.30;;
27839;SDS011;15207;42.182;24.308;2023-04-07T00:45:28;7.95;;;5.05;;
27839;SDS011;15207;42.182;24.308;2023-04-07T00:47:54;7.70;;;4.75;;
27839;SDS011;15207;42.182;24.308;2023-04-07T00:52:49;7.35;;;5.10;;
27839;SDS011;15207;42.182;24.308;2023-04-07T00:55:15;10.57;;;4.97;;
27839;SDS011;15207;42.182;24.308;2023-04-07T00:57:40;7.40;;;4.90;;
27839;SDS011;15207;42.182;24.308;2023-04-07T01:00:06;8.50;;;5.00;;
27839;SDS011;15207;42.182;24.308;2023-04-07T01:02:35;9.43;;;5.00;;
27839;SDS011;15207;42.182;24.308;2023-04-07T01:07:43;7.90;;;4.80;;
27839;SDS011;15207;42.182;24.308;2023-04-07T01:10:14;8.27;;;5.15;;
27839;SDS011;15207;42.182;24.308;2023-04-07T01:15:20;6.50;;;4.60;;
27839;SDS011;15207;42.182;24.308;2023-04-07T01:17:51;5.95;;;4.35;;
27839;SDS011;15207;42.182;24.308;2023-04-07T01:20:20;10.13;;;5.47;;
27839;SDS011;15207;42.182;24.308;2023-04-07T01:22:52;7.60;;;4.95;;
27839;SDS011;15207;42.182;24.308;2023-04-07T01:25:25;8.00;;;5.40;;
27839;SDS011;15207;42.182;24.308;2023-04-07T01:30:59;8.25;;;5.05;;
27839;SDS011;15207;42.182;24.308;2023-04-07T01:33:26;8.20;;;5.35;;
27839;SDS011;15207;42.182;24.308;2023-04-07T01:35:56;6.83;;;4.87;;
27839;SDS011;15207;42.182;24.308;2023-04-07T01:38:23;7.05;;;5.15;;
27839;SDS011;15207;42.182;24.308;2023-04-07T01:40:50;10.00;;;5.40;;
27839;SDS011;15207;42.182;24.308;2023-04-07T01:43:18;10.70;;;5.60;;
27839;SDS011;15207;42.182;24.308;2023-04-07T01:45:45;8.10;;;4.90;;
27839;SDS011;15207;42.182;24.308;2023-04-07T01:48:11;9.15;;;4.60;;
27839;SDS011;15207;42.182;24.308;2023-04-07T01:50:37;9.40;;;5.40;;
27839;SDS011;15207;42.182;24.308;2023-04-07T01:53:03;9.70;;;6.10;;
27839;SDS011;15207;42.182;24.308;2023-04-07T01:57:55;7.43;;;5.63;;
27839;SDS011;15207;42.182;24.308;2023-04-07T02:00:20;8.90;;;5.75;;
27839;SDS011;15207;42.182;24.308;2023-04-07T02:02:47;9.85;;;5.50;;
27839;SDS011;15207;42.182;24.308;2023-04-07T02:05:16;9.43;;;5.75;;
27839;SDS011;15207;42.182;24.308;2023-04-07T02:07:47;10.70;;;5.35;;
27839;SDS011;15207;42.182;24.308;2023-04-07T02:10:16;11.20;;;5.40;;
27839;SDS011;15207;42.182;24.308;2023-04-07T02:12:46;9.30;;;5.65;;
27839;SDS011;15207;42.182;24.308;2023-04-07T02:15:12;11.50;;;6.10;;
27839;SDS011;15207;42.182;24.308;2023-04-07T02:20:07;10.05;;;5.60;;
27839;SDS011;15207;42.182;24.308;2023-04-07T02:22:36;10.80;;;5.63;;
27839;SDS011;15207;42.182;24.308;2023-04-07T02:25:19;8.02;;;5.50;;
27839;SDS011;15207;42.182;24.308;2023-04-07T02:27:55;8.37;;;5.87;;
27839;SDS011;15207;42.182;24.308;2023-04-07T02:30:22;7.60;;;5.70;;
27839;SDS011;15207;42.182;24.308;2023-04-07T02:32:48;9.20;;;6.50;;
27839;SDS011;15207;42.182;24.308;2023-04-07T02:35:14;11.15;;;6.10;;
27839;SDS011;15207;42.182;24.308;2023-04-07T02:37:40;8.90;;;5.90;;
27839;SDS011;15207;42.182;24.308;2023-04-07T02:40:06;9.40;;;5.90;;
27839;SDS011;15207;42.182;24.308;2023-04-07T02:42:32;12.07;;;6.25;;
27839;SDS011;15207;42.182;24.308;2023-04-07T02:44:58;12.20;;;6.20;;
27839;SDS011;15207;42.182;24.308;2023-04-07T02:47:24;9.77;;;5.00;;
27839;SDS011;15207;42.182;24.308;2023-04-07T02:49:49;7.75;;;5.65;;
27839;SDS011;15207;42.182;24.308;2023-04-07T02:52:15;7.90;;;5.45;;
27839;SDS011;15207;42.182;24.308;2023-04-07T02:54:41;11.00;;;5.50;;
27839;SDS011;15207;42.182;24.308;2023-04-07T02:57:07;11.60;;;5.80;;
27839;SDS011;15207;42.182;24.308;2023-04-07T02:59:32;9.37;;;5.97;;
27839;SDS011;15207;42.182;24.308;2023-04-07T03:01:58;12.20;;;6.20;;
27839;SDS011;15207;42.182;24.308;2023-04-07T03:04:23;13.60;;;6.70;;
27839;SDS011;15207;42.182;24.308;2023-04-07T03:06:49;16.27;;;6.67;;
27839;SDS011;15207;42.182;24.308;2023-04-07T03:09:14;15.53;;;6.87;;
27839;SDS011;15207;42.182;24.308;2023-04-07T03:11:40;8.67;;;5.43;;
27839;SDS011;15207;42.182;24.308;2023-04-07T03:14:08;9.55;;;5.60;;
27839;SDS011;15207;42.182;24.308;2023-04-07T03:16:33;10.55;;;6.35;;
27839;SDS011;15207;42.182;24.308;2023-04-07T03:18:59;11.10;;;6.50;;
27839;SDS011;15207;42.182;24.308;2023-04-07T03:21:24;10.40;;;6.20;;
27839;SDS011;15207;42.182;24.308;2023-04-07T03:23:50;11.00;;;6.10;;
27839;SDS011;15207;42.182;24.308;2023-04-07T03:26:16;12.77;;;6.00;;
27839;SDS011;15207;42.182;24.308;2023-04-07T03:28:41;9.10;;;5.80;;
27839;SDS011;15207;42.182;24.308;2023-04-07T03:31:07;7.07;;;5.57;;
27839;SDS011;15207;42.182;24.308;2023-04-07T03:33:32;9.37;;;5.80;;
27839;SDS011;15207;42.182;24.308;2023-04-07T03:35:59;9.45;;;6.05;;
27839;SDS011;15207;42.182;24.308;2023-04-07T03:38:25;10.90;;;6.30;;
27839;SDS011;15207;42.182;24.308;2023-04-07T03:40:50;9.70;;;6.25;;
27839;SDS011;15207;42.182;24.308;2023-04-07T03:43:16;12.15;;;6.60;;
27839;SDS011;15207;42.182;24.308;2023-04-07T03:45:41;9.00;;;6.00;;
27839;SDS011;15207;42.182;24.308;2023-04-07T03:48:07;10.30;;;5.70;;
27839;SDS011;15207;42.182;24.308;2023-04-07T03:50:36;15.65;;;6.65;;
27839;SDS011;15207;42.182;24.308;2023-04-07T03:53:02;9.00;;;6.15;;
27839;SDS011;15207;42.182;24.308;2023-04-07T03:55:28;16.20;;;6.15;;
27839;SDS011;15207;42.182;24.308;2023-04-07T03:57:54;9.65;;;6.35;;
27839;SDS011;15207;42.182;24.308;2023-04-07T04:00:20;10.20;;;6.00;;
27839;SDS011;15207;42.182;24.308;2023-04-07T04:02:46;12.40;;;6.40;;
27839;SDS011;15207;42.182;24.308;2023-04-07T04:05:12;15.43;;;7.28;;
27839;SDS011;15207;42.182;24.308;2023-04-07T04:07:37;13.30;;;7.60;;
27839;SDS011;15207;42.182;24.308;2023-04-07T04:10:03;10.60;;;5.95;;
27839;SDS011;15207;42.182;24.308;2023-04-07T04:12:30;12.20;;;7.10;;
27839;SDS011;15207;42.182;24.308;2023-04-07T04:14:55;13.05;;;6.10;;
27839;SDS011;15207;42.182;24.308;2023-04-07T04:17:20;11.77;;;6.10;;
27839;SDS011;15207;42.182;24.308;2023-04-07T04:19:46;10.03;;;6.50;;
27839;SDS011;15207;42.182;24.308;2023-04-07T04:22:11;12.00;;;7.00;;
27839;SDS011;15207;42.182;24.308;2023-04-07T04:27:02;12.60;;;7.30;;
27839;SDS011;15207;42.182;24.308;2023-04-07T04:29:28;11.35;;;6.70;;
27839;SDS011;15207;42.182;24.308;2023-04-07T04:31:53;11.77;;;7.15;;
27839;SDS011;15207;42.182;24.308;2023-04-07T04:34:19;12.10;;;7.10;;
27839;SDS011;15207;42.182;24.308;2023-04-07T04:36:45;11.20;;;7.20;;
27839;SDS011;15207;42.182;24.308;2023-04-07T04:39:13;15.73;;;7.63;;
27839;SDS011;15207;42.182;24.308;2023-04-07T04:41:38;14.70;;;8.35;;
27839;SDS011;15207;42.182;24.308;2023-04-07T04:46:29;10.70;;;6.90;;
27839;SDS011;15207;42.182;24.308;2023-04-07T04:48:55;13.15;;;7.25;;
27839;SDS011;15207;42.182;24.308;2023-04-07T04:51:22;9.90;;;6.50;;
27839;SDS011;15207;42.182;24.308;2023-04-07T04:53:48;9.30;;;6.70;;
27839;SDS011;15207;42.182;24.308;2023-04-07T04:56:13;13.00;;;6.50;;
27839;SDS011;15207;42.182;24.308;2023-04-07T04:58:39;14.50;;;7.20;;
27839;SDS011;15207;42.182;24.308;2023-04-07T05:01:10;10.50;;;6.90;;
27839;SDS011;15207;42.182;24.308;2023-04-07T05:03:38;13.40;;;7.30;;
27839;SDS011;15207;42.182;24.308;2023-04-07T05:06:04;13.50;;;7.35;;
27839;SDS011;15207;42.182;24.308;2023-04-07T05:08:30;12.90;;;7.00;;
27839;SDS011;15207;42.182;24.308;2023-04-07T05:10:55;11.20;;;7.60;;
27839;SDS011;15207;42.182;24.308;2023-04-07T05:13:21;14.10;;;7.75;;
27839;SDS011;15207;42.182;24.308;2023-04-07T05:15:47;13.20;;;7.80;;
27839;SDS011;15207;42.182;24.308;2023-04-07T05:18:12;13.60;;;8.43;;
27839;SDS011;15207;42.182;24.308;2023-04-07T05:20:38;12.90;;;7.90;;
27839;SDS011;15207;42.182;24.308;2023-04-07T05:23:04;13.45;;;7.80;;
27839;SDS011;15207;42.182;24.308;2023-04-07T05:25:29;12.05;;;7.80;;
27839;SDS011;15207;42.182;24.308;2023-04-07T05:27:56;13.30;;;7.40;;
27839;SDS011;15207;42.182;24.308;2023-04-07T05:30:22;10.30;;;6.70;;
27839;SDS011;15207;42.182;24.308;2023-04-07T05:32:48;13.00;;;6.55;;
27839;SDS011;15207;42.182;24.308;2023-04-07T05:35:13;10.50;;;6.65;;
27839;SDS011;15207;42.182;24.308;2023-04-07T05:37:39;9.20;;;5.63;;
27839;SDS011;15207;42.182;24.308;2023-04-07T05:40:05;8.15;;;5.20;;
27839;SDS011;15207;42.182;24.308;2023-04-07T05:42:31;8.80;;;5.80;;
27839;SDS011;15207;42.182;24.308;2023-04-07T05:47:23;11.10;;;6.35;;
27839;SDS011;15207;42.182;24.308;2023-04-07T05:49:48;10.80;;;5.60;;
27839;SDS011;15207;42.182;24.308;2023-04-07T05:52:14;8.70;;;5.70;;
27839;SDS011;15207;42.182;24.308;2023-04-07T05:54:39;9.70;;;5.63;;
27839;SDS011;15207;42.182;24.308;2023-04-07T05:59:31;12.00;;;5.55;;
27839;SDS011;15207;42.182;24.308;2023-04-07T06:01:57;11.50;;;6.20;;
27839;SDS011;15207;42.182;24.308;2023-04-07T06:04:23;9.40;;;5.73;;
27839;SDS011;15207;42.182;24.308;2023-04-07T06:06:48;9.40;;;5.47;;
27839;SDS011;15207;42.182;24.308;2023-04-07T06:09:14;11.40;;;6.40;;
27839;SDS011;15207;42.182;24.308;2023-04-07T06:11:39;9.40;;;5.60;;
27839;SDS011;15207;42.182;24.308;2023-04-07T06:14:05;11.83;;;5.77;;
27839;SDS011;15207;42.182;24.308;2023-04-07T06:16:30;7.05;;;5.65;;
27839;SDS011;15207;42.182;24.308;2023-04-07T06:18:56;10.32;;;5.65;;
27839;SDS011;15207;42.182;24.308;2023-04-07T06:21:21;11.67;;;5.60;;
27839;SDS011;15207;42.182;24.308;2023-04-07T06:23:47;9.70;;;5.50;;
27839;SDS011;15207;42.182;24.308;2023-04-07T06:26:13;10.20;;;5.43;;
27839;SDS011;15207;42.182;24.308;2023-04-07T06:28:38;8.40;;;4.80;;
27839;SDS011;15207;42.182;24.308;2023-04-07T06:33:31;7.40;;;4.60;;
27839;SDS011;15207;42.182;24.308;2023-04-07T06:35:56;8.60;;;4.30;;
27839;SDS011;15207;42.182;24.308;2023-04-07T06:38:22;7.45;;;4.10;;
27839;SDS011;15207;42.182;24.308;2023-04-07T06:40:50;6.72;;;4.47;;
27839;SDS011;15207;42.182;24.308;2023-04-07T06:43:16;11.80;;;4.40;;
27839;SDS011;15207;42.182;24.308;2023-04-07T06:45:41;8.50;;;4.50;;
27839;SDS011;15207;42.182;24.308;2023-04-07T06:48:07;7.93;;;4.63;;
27839;SDS011;15207;42.182;24.308;2023-04-07T06:50:35;8.02;;;4.28;;
27839;SDS011;15207;42.182;24.308;2023-04-07T06:53:01;7.15;;;4.28;;
27839;SDS011;15207;42.182;24.308;2023-04-07T06:55:27;6.40;;;3.87;;
27839;SDS011;15207;42.182;24.308;2023-04-07T06:57:52;7.55;;;4.95;;
27839;SDS011;15207;42.182;24.308;2023-04-07T07:00:18;7.00;;;4.10;;
27839;SDS011;15207;42.182;24.308;2023-04-07T07:02:43;6.50;;;4.40;;
27839;SDS011;15207;42.182;24.308;2023-04-07T07:05:09;10.00;;;4.50;;
27839;SDS011;15207;42.182;24.308;2023-04-07T07:07:35;6.30;;;4.07;;
27839;SDS011;15207;42.182;24.308;2023-04-07T07:10:02;7.75;;;4.50;;
27839;SDS011;15207;42.182;24.308;2023-04-07T07:12:28;9.25;;;4.65;;
27839;SDS011;15207;42.182;24.308;2023-04-07T07:14:53;7.50;;;4.10;;
27839;SDS011;15207;42.182;24.308;2023-04-07T07:17:19;7.30;;;4.00;;
27839;SDS011;15207;42.182;24.308;2023-04-07T07:19:45;7.00;;;4.40;;
27839;SDS011;15207;42.182;24.308;2023-04-07T07:22:10;11.80;;;4.80;;
27839;SDS011;15207;42.182;24.308;2023-04-07T07:24:36;11.10;;;4.50;;
27839;SDS011;15207;42.182;24.308;2023-04-07T07:27:01;9.15;;;4.65;;
27839;SDS011;15207;42.182;24.308;2023-04-07T07:29:27;10.20;;;4.20;;
27839;SDS011;15207;42.182;24.308;2023-04-07T07:34:18;9.30;;;4.50;;
27839;SDS011;15207;42.182;24.308;2023-04-07T07:36:44;7.55;;;4.45;;
27839;SDS011;15207;42.182;24.308;2023-04-07T07:39:09;6.78;;;4.13;;
27839;SDS011;15207;42.182;24.308;2023-04-07T07:41:35;9.35;;;4.55;;
27839;SDS011;15207;42.182;24.308;2023-04-07T07:44:01;6.60;;;4.10;;
27839;SDS011;15207;42.182;24.308;2023-04-07T07:46:26;6.60;;;3.95;;
27839;SDS011;15207;42.182;24.308;2023-04-07T07:48:52;11.57;;;4.20;;
27839;SDS011;15207;42.182;24.308;2023-04-07T07:51:17;8.33;;;4.23;;
27839;SDS011;15207;42.182;24.308;2023-04-07T07:56:09;5.00;;;3.67;;
27839;SDS011;15207;42.182;24.308;2023-04-07T07:58:34;6.40;;;3.90;;
27839;SDS011;15207;42.182;24.308;2023-04-07T08:01:00;4.70;;;3.40;;
27839;SDS011;15207;42.182;24.308;2023-04-07T08:03:26;5.10;;;3.07;;
27839;SDS011;15207;42.182;24.308;2023-04-07T08:05:51;4.75;;;3.30;;
27839;SDS011;15207;42.182;24.308;2023-04-07T08:08:17;3.80;;;2.80;;
27839;SDS011;15207;42.182;24.308;2023-04-07T08:10:43;5.20;;;3.55;;
27839;SDS011;15207;42.182;24.308;2023-04-07T08:13:08;4.10;;;2.70;;
27839;SDS011;15207;42.182;24.308;2023-04-07T08:15:34;4.47;;;2.50;;
27839;SDS011;15207;42.182;24.308;2023-04-07T08:17:59;5.65;;;2.45;;
27839;SDS011;15207;42.182;24.308;2023-04-07T08:20:28;3.75;;;2.45;;
27839;SDS011;15207;42.182;24.308;2023-04-07T08:22:54;7.50;;;3.50;;
27839;SDS011;15207;42.182;24.308;2023-04-07T08:25:20;4.80;;;2.55;;
27839;SDS011;15207;42.182;24.308;2023-04-07T08:30:11;9.43;;;2.97;;
27839;SDS011;15207;42.182;24.308;2023-04-07T08:32:38;4.40;;;2.75;;
27839;SDS011;15207;42.182;24.308;2023-04-07T08:35:07;3.90;;;2.65;;
27839;SDS011;15207;42.182;24.308;2023-04-07T08:37:34;3.45;;;2.50;;
27839;SDS011;15207;42.182;24.308;2023-04-07T08:40:01;7.22;;;2.80;;
27839;SDS011;15207;42.182;24.308;2023-04-07T08:42:29;7.43;;;2.80;;
27839;SDS011;15207;42.182;24.308;2023-04-07T08:44:57;3.65;;;2.35;;
27839;SDS011;15207;42.182;24.308;2023-04-07T08:50:00;3.15;;;2.45;;
27839;SDS011;15207;42.182;24.308;2023-04-07T08:52:38;4.80;;;2.70;;
27839;SDS011;15207;42.182;24.308;2023-04-07T08:55:08;3.40;;;2.40;;
27839;SDS011;15207;42.182;24.308;2023-04-07T08:57:35;4.43;;;2.28;;
27839;SDS011;15207;42.182;24.308;2023-04-07T09:00:01;7.20;;;2.95;;
27839;SDS011;15207;42.182;24.308;2023-04-07T09:02:34;4.20;;;2.60;;
27839;SDS011;15207;42.182;24.308;2023-04-07T09:07:28;5.90;;;3.40;;
27839;SDS011;15207;42.182;24.308;2023-04-07T09:09:55;5.00;;;3.10;;
27839;SDS011;15207;42.182;24.308;2023-04-07T09:12:21;4.82;;;3.10;;
27839;SDS011;15207;42.182;24.308;2023-04-07T09:14:46;6.00;;;3.10;;
27839;SDS011;15207;42.182;24.308;2023-04-07T09:17:12;5.18;;;2.92;;
27839;SDS011;15207;42.182;24.308;2023-04-07T09:19:37;4.10;;;2.70;;
27839;SDS011;15207;42.182;24.308;2023-04-07T09:22:03;7.25;;;4.35;;
27839;SDS011;15207;42.182;24.308;2023-04-07T09:24:29;4.27;;;2.90;;
27839;SDS011;15207;42.182;24.308;2023-04-07T09:27:15;3.70;;;3.00;;
27839;SDS011;15207;42.182;24.308;2023-04-07T09:29:44;5.65;;;3.00;;
27839;SDS011;15207;42.182;24.308;2023-04-07T09:32:11;4.65;;;3.05;;
27839;SDS011;15207;42.182;24.308;2023-04-07T09:34:39;4.45;;;3.05;;
27839;SDS011;15207;42.182;24.308;2023-04-07T09:37:06;5.70;;;3.30;;
27839;SDS011;15207;42.182;24.308;2023-04-07T09:39:33;4.70;;;3.30;;
27839;SDS011;15207;42.182;24.308;2023-04-07T09:42:13;5.88;;;2.95;;
27839;SDS011;15207;42.182;24.308;2023-04-07T09:44:39;4.85;;;2.70;;
27839;SDS011;15207;42.182;24.308;2023-04-07T09:47:05;7.97;;;3.30;;
27839;SDS011;15207;42.182;24.308;2023-04-07T09:49:31;4.05;;;2.95;;
27839;SDS011;15207;42.182;24.308;2023-04-07T09:51:58;4.80;;;2.70;;
27839;SDS011;15207;42.182;24.308;2023-04-07T09:56:58;6.65;;;3.60;;
27839;SDS011;15207;42.182;24.308;2023-04-07T09:59:26;3.47;;;2.90;;
27839;SDS011;15207;42.182;24.308;2023-04-07T10:01:53;5.45;;;3.30;;
27839;SDS011;15207;42.182;24.308;2023-04-07T10:04:19;4.50;;;2.85;;
27839;SDS011;15207;42.182;24.308;2023-04-07T10:06:46;5.40;;;3.40;;
27839;SDS011;15207;42.182;24.308;2023-04-07T10:11:38;4.70;;;3.30;;
27839;SDS011;15207;42.182;24.308;2023-04-07T10:14:05;5.00;;;3.03;;
27839;SDS011;15207;42.182;24.308;2023-04-07T10:16:31;5.78;;;3.38;;
27839;SDS011;15207;42.182;24.308;2023-04-07T10:18:57;6.00;;;3.30;;
27839;SDS011;15207;42.182;24.308;2023-04-07T10:21:23;5.50;;;3.20;;
27839;SDS011;15207;42.182;24.308;2023-04-07T10:24:02;4.55;;;2.85;;
27839;SDS011;15207;42.182;24.308;2023-04-07T10:26:43;7.88;;;3.17;;
27839;SDS011;15207;42.182;24.308;2023-04-07T10:29:22;5.35;;;3.20;;
27839;SDS011;15207;42.182;24.308;2023-04-07T10:31:49;4.70;;;3.10;;
27839;SDS011;15207;42.182;24.308;2023-04-07T10:34:16;6.00;;;3.28;;
27839;SDS011;15207;42.182;24.308;2023-04-07T10:37:11;4.38;;;3.25;;
27839;SDS011;15207;42.182;24.308;2023-04-07T10:39:38;5.00;;;3.20;;
27839;SDS011;15207;42.182;24.308;2023-04-07T10:42:04;7.43;;;3.28;;
27839;SDS011;15207;42.182;24.308;2023-04-07T10:47:05;4.20;;;3.20;;
27839;SDS011;15207;42.182;24.308;2023-04-07T10:49:31;5.30;;;3.25;;
27839;SDS011;15207;42.182;24.308;2023-04-07T10:54:36;7.35;;;3.15;;
27839;SDS011;15207;42.182;24.308;2023-04-07T10:59:36;4.95;;;2.80;;
27839;SDS011;15207;42.182;24.308;2023-04-07T11:04:40;4.10;;;3.00;;
27839;SDS011;15207;42.182;24.308;2023-04-07T11:07:10;5.38;;;3.40;;
27839;SDS011;15207;42.182;24.308;2023-04-07T11:09:36;4.40;;;3.10;;
27839;SDS011;15207;42.182;24.308;2023-04-07T11:12:02;8.00;;;3.20;;
27839;SDS011;15207;42.182;24.308;2023-04-07T11:14:29;5.20;;;3.40;;
27839;SDS011;15207;42.182;24.308;2023-04-07T11:16:56;4.40;;;2.97;;
27839;SDS011;15207;42.182;24.308;2023-04-07T11:19:22;4.60;;;3.10;;
27839;SDS011;15207;42.182;24.308;2023-04-07T11:21:48;7.30;;;3.30;;
27839;SDS011;15207;42.182;24.308;2023-04-07T11:27:04;4.10;;;2.95;;
27839;SDS011;15207;42.182;24.308;2023-04-07T11:29:31;5.07;;;3.17;;
27839;SDS011;15207;42.182;24.308;2023-04-07T11:31:59;5.38;;;3.17;;
27839;SDS011;15207;42.182;24.308;2023-04-07T11:34:29;5.10;;;3.40;;
27839;SDS011;15207;42.182;24.308;2023-04-07T11:36:56;5.80;;;3.60;;
27839;SDS011;15207;42.182;24.308;2023-04-07T11:39:24;5.05;;;2.95;;
27839;SDS011;15207;42.182;24.308;2023-04-07T11:41:55;5.90;;;3.85;;
27839;SDS011;15207;42.182;24.308;2023-04-07T11:44:21;4.80;;;3.80;;
27839;SDS011;15207;42.182;24.308;2023-04-07T11:46:57;7.25;;;3.50;;
27839;SDS011;15207;42.182;24.308;2023-04-07T11:49:25;6.00;;;3.10;;
27839;SDS011;15207;42.182;24.308;2023-04-07T11:54:40;5.50;;;3.80;;
27839;SDS011;15207;42.182;24.308;2023-04-07T11:57:07;5.15;;;3.55;;
27839;SDS011;15207;42.182;24.308;2023-04-07T11:59:38;5.35;;;3.70;;
27839;SDS011;15207;42.182;24.308;2023-04-07T12:02:05;7.35;;;3.55;;
27839;SDS011;15207;42.182;24.308;2023-04-07T12:04:32;6.68;;;3.55;;
27839;SDS011;15207;42.182;24.308;2023-04-07T12:07:06;5.03;;;3.53;;
27839;SDS011;15207;42.182;24.308;2023-04-07T12:09:33;6.20;;;3.70;;
27839;SDS011;15207;42.182;24.308;2023-04-07T12:12:02;6.95;;;4.40;;
27839;SDS011;15207;42.182;24.308;2023-04-07T12:14:32;7.80;;;4.00;;
27839;SDS011;15207;42.182;24.308;2023-04-07T12:19:27;7.05;;;3.80;;
27839;SDS011;15207;42.182;24.308;2023-04-07T12:21:57;4.70;;;3.50;;
27839;SDS011;15207;42.182;24.308;2023-04-07T12:24:23;4.60;;;3.25;;
27839;SDS011;15207;42.182;24.308;2023-04-07T12:26:49;7.00;;;4.10;;
27839;SDS011;15207;42.182;24.308;2023-04-07T12:29:17;8.80;;;3.70;;
27839;SDS011;15207;42.182;24.308;2023-04-07T12:31:44;5.35;;;3.55;;
27839;SDS011;15207;42.182;24.308;2023-04-07T12:34:10;7.70;;;3.70;;
27839;SDS011;15207;42.182;24.308;2023-04-07T12:36:36;5.10;;;3.70;;
27839;SDS011;15207;42.182;24.308;2023-04-07T12:39:01;7.83;;;3.80;;
27839;SDS011;15207;42.182;24.308;2023-04-07T12:41:27;6.85;;;3.70;;
27839;SDS011;15207;42.182;24.308;2023-04-07T12:43:52;5.80;;;4.10;;
27839;SDS011;15207;42.182;24.308;2023-04-07T12:46:18;4.50;;;3.10;;
27839;SDS011;15207;42.182;24.308;2023-04-07T12:48:45;4.85;;;3.45;;
27839;SDS011;15207;42.182;24.308;2023-04-07T12:51:12;5.50;;;3.50;;
27839;SDS011;15207;42.182;24.308;2023-04-07T12:53:37;5.50;;;3.10;;
27839;SDS011;15207;42.182;24.308;2023-04-07T12:56:03;4.95;;;3.60;;
27839;SDS011;15207;42.182;24.308;2023-04-07T12:58:28;6.55;;;3.55;;
27839;SDS011;15207;42.182;24.308;2023-04-07T13:00:54;7.50;;;3.40;;
27839;SDS011;15207;42.182;24.308;2023-04-07T13:03:21;5.55;;;3.45;;
27839;SDS011;15207;42.182;24.308;2023-04-07T13:05:46;6.60;;;3.35;;
27839;SDS011;15207;42.182;24.308;2023-04-07T13:08:12;8.80;;;3.30;;
27839;SDS011;15207;42.182;24.308;2023-04-07T13:10:38;4.15;;;3.30;;
27839;SDS011;15207;42.182;24.308;2023-04-07T13:13:03;11.55;;;3.53;;
27839;SDS011;15207;42.182;24.308;2023-04-07T13:15:29;5.30;;;3.80;;
27839;SDS011;15207;42.182;24.308;2023-04-07T13:17:55;7.43;;;3.23;;
27839;SDS011;15207;42.182;24.308;2023-04-07T13:22:46;8.20;;;3.30;;
27839;SDS011;15207;42.182;24.308;2023-04-07T13:25:12;6.20;;;3.70;;
27839;SDS011;15207;42.182;24.308;2023-04-07T13:27:37;10.27;;;3.88;;
27839;SDS011;15207;42.182;24.308;2023-04-07T13:30:03;3.90;;;2.55;;
27839;SDS011;15207;42.182;24.308;2023-04-07T13:32:30;4.63;;;3.20;;
27839;SDS011;15207;42.182;24.308;2023-04-07T13:34:55;5.50;;;3.40;;
27839;SDS011;15207;42.182;24.308;2023-04-07T13:37:21;7.50;;;3.40;;
27839;SDS011;15207;42.182;24.308;2023-04-07T13:39:47;5.93;;;3.43;;
27839;SDS011;15207;42.182;24.308;2023-04-07T13:42:13;5.15;;;3.20;;
27839;SDS011;15207;42.182;24.308;2023-04-07T13:44:41;7.70;;;4.45;;
27839;SDS011;15207;42.182;24.308;2023-04-07T13:47:09;7.22;;;4.90;;
27839;SDS011;15207;42.182;24.308;2023-04-07T13:49:35;8.70;;;4.50;;
27839;SDS011;15207;42.182;24.308;2023-04-07T13:52:01;10.65;;;5.00;;
27839;SDS011;15207;42.182;24.308;2023-04-07T13:54:26;6.03;;;4.95;;
27839;SDS011;15207;42.182;24.308;2023-04-07T13:56:52;6.10;;;4.00;;
27839;SDS011;15207;42.182;24.308;2023-04-07T13:59:17;7.60;;;4.20;;
27839;SDS011;15207;42.182;24.308;2023-04-07T14:01:43;5.80;;;3.70;;
27839;SDS011;15207;42.182;24.308;2023-04-07T14:04:09;6.40;;;4.10;;
27839;SDS011;15207;42.182;24.308;2023-04-07T14:06:35;5.80;;;3.70;;
27839;SDS011;15207;42.182;24.308;2023-04-07T14:09:02;6.88;;;3.88;;
27839;SDS011;15207;42.182;24.308;2023-04-07T14:11:28;5.30;;;3.63;;
27839;SDS011;15207;42.182;24.308;2023-04-07T14:13:54;4.82;;;3.30;;
27839;SDS011;15207;42.182;24.308;2023-04-07T14:16:22;4.70;;;3.60;;
27839;SDS011;15207;42.182;24.308;2023-04-07T14:18:49;5.15;;;3.35;;
27839;SDS011;15207;42.182;24.308;2023-04-07T14:21:15;5.45;;;4.15;;
27839;SDS011;15207;42.182;24.308;2023-04-07T14:23:41;5.22;;;3.65;;
27839;SDS011;15207;42.182;24.308;2023-04-07T14:26:10;7.50;;;4.68;;
27839;SDS011;15207;42.182;24.308;2023-04-07T14:28:36;8.70;;;4.30;;
27839;SDS011;15207;42.182;24.308;2023-04-07T14:31:02;7.00;;;4.70;;
27839;SDS011;15207;42.182;24.308;2023-04-07T14:33:27;7.05;;;4.90;;
27839;SDS011;15207;42.182;24.308;2023-04-07T14:35:53;6.15;;;4.15;;
27839;SDS011;15207;42.182;24.308;2023-04-07T14:38:19;11.10;;;5.30;;
27839;SDS011;15207;42.182;24.308;2023-04-07T14:40:50;6.40;;;4.50;;
27839;SDS011;15207;42.182;24.308;2023-04-07T14:43:16;5.70;;;4.00;;
27839;SDS011;15207;42.182;24.308;2023-04-07T14:45:42;6.45;;;4.05;;
27839;SDS011;15207;42.182;24.308;2023-04-07T14:48:07;6.70;;;4.20;;
27839;SDS011;15207;42.182;24.308;2023-04-07T14:50:33;7.07;;;4.32;;
27839;SDS011;15207;42.182;24.308;2023-04-07T14:52:59;6.65;;;4.40;;
27839;SDS011;15207;42.182;24.308;2023-04-07T14:55:25;6.10;;;4.10;;
27839;SDS011;15207;42.182;24.308;2023-04-07T14:57:50;8.53;;;4.17;;
27839;SDS011;15207;42.182;24.308;2023-04-07T15:00:16;9.30;;;4.40;;
27839;SDS011;15207;42.182;24.308;2023-04-07T15:02:41;9.90;;;4.15;;
27839;SDS011;15207;42.182;24.308;2023-04-07T15:05:07;7.05;;;4.55;;
27839;SDS011;15207;42.182;24.308;2023-04-07T15:07:33;6.75;;;4.20;;
27839;SDS011;15207;42.182;24.308;2023-04-07T15:09:58;6.03;;;3.80;;
27839;SDS011;15207;42.182;24.308;2023-04-07T15:12:24;7.60;;;4.60;;
27839;SDS011;15207;42.182;24.308;2023-04-07T15:17:18;6.47;;;4.63;;
27839;SDS011;15207;42.182;24.308;2023-04-07T15:19:45;7.03;;;4.43;;
27839;SDS011;15207;42.182;24.308;2023-04-07T15:22:11;6.25;;;4.55;;
27839;SDS011;15207;42.182;24.308;2023-04-07T15:24:36;8.50;;;5.10;;
27839;SDS011;15207;42.182;24.308;2023-04-07T15:27:02;9.00;;;5.40;;
27839;SDS011;15207;42.182;24.308;2023-04-07T15:29:27;9.93;;;4.40;;
27839;SDS011;15207;42.182;24.308;2023-04-07T15:31:53;7.93;;;5.15;;
27839;SDS011;15207;42.182;24.308;2023-04-07T15:36:44;9.70;;;5.30;;
27839;SDS011;15207;42.182;24.308;2023-04-07T15:39:09;8.33;;;5.20;;